Time;durP1;ratioP1;P1;durP2;ratioP2;P2;SDS_P1;SDS_P2;PMS_P1;PMS_P2;Temp;Humidity;BMP_temperature;BMP_pressure;BME280_temperature;BME280_humidity;BME280_pressure;Samples;Min_cycle;Max_cycle;Signal;HPM_P1;HPM_P2
2021/03/09 00:03:16;;;;;;;4.38;3.40;;;17.70;55.10;;;;;;10468485;28;20381;-55
2021/03/09 00:08:16;;;;;;;4.47;3.28;;;17.70;55.10;;;;;;10456044;28;20033;-54
2021/03/09 00:13:17;;;;;;;4.28;2.95;;;17.70;55.00;;;;;;10465625;28;20049;-55
2021/03/09 00:18:18;;;;;;;4.90;2.83;;;17.70;55.00;;;;;;10460870;28;20029;-54
2021/03/09 00:23:18;;;;;;;5.20;2.80;;;17.70;54.90;;;;;;10477166;28;20454;-55
2021/03/09 00:28:20;;;;;;;5.15;2.83;;;17.70;54.90;;;;;;10496288;28;20078;-55
2021/03/09 00:33:21;;;;;;;4.90;3.08;;;17.70;54.90;;;;;;10459819;28;20115;-55
2021/03/09 00:38:22;;;;;;;4.18;2.63;;;17.70;54.90;;;;;;10455537;28;20024;-54
2021/03/09 00:43:22;;;;;;;4.75;2.95;;;17.70;54.80;;;;;;10486199;28;20534;-55
2021/03/09 00:48:23;;;;;;;5.20;3.03;;;17.70;54.80;;;;;;10496882;28;20063;-55
2021/03/09 00:53:24;;;;;;;5.38;2.85;;;17.70;54.60;;;;;;10458959;28;20025;-55
2021/03/09 00:58:25;;;;;;;3.85;2.83;;;17.70;54.60;;;;;;10481284;28;20044;-55
2021/03/09 01:03:25;;;;;;;3.45;2.38;;;17.70;54.60;;;;;;10495386;28;20064;-55
2021/03/09 01:08:26;;;;;;;5.45;3.30;;;17.70;54.50;;;;;;10494961;28;20421;-55
2021/03/09 01:13:27;;;;;;;5.18;2.80;;;17.70;54.50;;;;;;10458545;28;20067;-54
2021/03/09 01:18:28;;;;;;;4.28;2.80;;;17.70;54.30;;;;;;10453948;28;20025;-55
2021/03/09 01:23:28;;;;;;;4.55;3.30;;;17.80;54.20;;;;;;10482575;28;20033;-54
2021/03/09 01:28:29;;;;;;;4.10;2.70;;;17.80;54.20;;;;;;10501942;28;20040;-55
2021/03/09 01:33:30;;;;;;;7.45;3.28;;;17.80;54.10;;;;;;10468142;28;20112;-55
2021/03/09 01:38:30;;;;;;;5.10;3.28;;;17.80;54.20;;;;;;10461803;28;20036;-55
2021/03/09 01:43:32;;;;;;;5.25;3.53;;;17.80;54.10;;;;;;10494485;28;20498;-55
2021/03/09 01:48:45;;;;;;;5.60;3.30;;;17.70;54.00;;;;;;10502729;28;20392;-55
2021/03/09 01:53:46;;;;;;;4.95;2.95;;;17.70;54.00;;;;;;10462753;28;20343;-55
2021/03/09 01:58:49;;;;;;;4.78;3.00;;;17.70;54.00;;;;;;10462721;28;20120;-55
2021/03/09 02:03:50;;;;;;;5.95;3.15;;;17.80;54.40;;;;;;10493307;28;20435;-56
2021/03/09 02:08:51;;;;;;;5.75;3.60;;;17.80;55.00;;;;;;10460915;28;20162;-54
2021/03/09 02:14:07;;;;;;;5.63;3.30;;;17.80;55.70;;;;;;10501865;28;20056;-55
2021/03/09 02:19:53;;;;;;;5.22;2.95;;;17.90;55.90;;;;;;10497357;28;20044;-55
2021/03/09 02:25:11;;;;;;;5.38;3.30;;;17.90;56.00;;;;;;10458835;28;20068;-55
2021/03/09 02:30:19;;;;;;;4.43;2.83;;;17.80;55.90;;;;;;10462448;28;20136;-55
2021/03/09 02:35:22;;;;;;;5.45;3.40;;;17.80;56.10;;;;;;10499858;28;20116;-55
2021/03/09 02:40:25;;;;;;;5.13;3.10;;;17.80;56.20;;;;;;10484639;28;20108;-55
2021/03/09 02:45:27;;;;;;;4.22;2.88;;;17.80;56.10;;;;;;10458080;28;20542;-54
2021/03/09 02:50:28;;;;;;;5.88;3.28;;;17.80;56.10;;;;;;10467979;28;20035;-55
2021/03/09 02:55:30;;;;;;;6.13;3.72;;;17.80;56.20;;;;;;10459236;28;20545;-55
2021/03/09 03:00:31;;;;;;;4.50;3.20;;;17.80;56.20;;;;;;10471111;28;20044;-54
2021/03/09 03:05:32;;;;;;;6.80;4.15;;;17.80;56.20;;;;;;10477472;28;20374;-55
2021/03/09 03:10:35;;;;;;;5.30;3.22;;;17.80;56.20;;;;;;10457670;28;20049;-55
2021/03/09 03:15:38;;;;;;;4.78;3.13;;;17.80;56.10;;;;;;10498291;28;20413;-55
2021/03/09 03:20:41;;;;;;;5.75;3.72;;;17.80;56.10;;;;;;10482319;28;20029;-54
2021/03/09 03:25:52;;;;;;;5.05;3.50;;;17.80;56.00;;;;;;10458332;28;20028;-55
2021/03/09 03:30:52;;;;;;;4.72;3.33;;;17.80;55.80;;;;;;10481817;28;20124;-55
2021/03/09 03:35:53;;;;;;;6.13;3.72;;;17.80;55.80;;;;;;10456058;28;20112;-56
2021/03/09 03:40:54;;;;;;;4.72;3.20;;;17.80;55.80;;;;;;10466201;28;20020;-55
2021/03/09 03:45:55;;;;;;;5.07;3.25;;;17.80;55.80;;;;;;10472180;28;20036;-55
2021/03/09 03:50:55;;;;;;;4.35;3.28;;;17.70;55.80;;;;;;10455634;28;20033;-55
2021/03/09 03:56:29;;;;;;;4.53;3.63;;;17.70;55.80;;;;;;10456467;28;20108;-55
2021/03/09 04:01:30;;;;;;;3.72;2.78;;;17.70;55.80;;;;;;10459854;28;20493;-55
2021/03/09 04:06:33;;;;;;;4.50;3.33;;;17.70;55.80;;;;;;10454841;28;20032;-55
2021/03/09 04:11:37;;;;;;;4.80;3.55;;;17.70;55.80;;;;;;10463324;28;20044;-55
2021/03/09 04:16:40;;;;;;;5.57;3.72;;;17.70;55.80;;;;;;10496133;28;20064;-55
2021/03/09 04:21:42;;;;;;;6.03;3.78;;;17.70;55.70;;;;;;10471228;28;20040;-55
2021/03/09 04:26:44;;;;;;;5.05;3.50;;;17.70;55.60;;;;;;10454525;28;20032;-54
2021/03/09 04:31:45;;;;;;;4.82;3.15;;;17.70;55.60;;;;;;10469449;28;20029;-55
2021/03/09 04:36:46;;;;;;;5.28;3.33;;;17.70;55.40;;;;;;10495688;28;20027;-55
2021/03/09 04:41:47;;;;;;;5.68;3.38;;;17.70;55.40;;;;;;10471339;28;20036;-55
2021/03/09 04:46:48;;;;;;;5.55;3.88;;;17.70;55.40;;;;;;10486890;28;20033;-55
2021/03/09 04:51:49;;;;;;;5.72;3.78;;;17.70;55.40;;;;;;10469375;28;20025;-55
2021/03/09 04:56:49;;;;;;;5.28;3.30;;;17.70;55.40;;;;;;10455405;28;20037;-55
2021/03/09 05:01:50;;;;;;;4.80;3.65;;;17.70;55.30;;;;;;10484175;28;20032;-55
2021/03/09 05:06:51;;;;;;;5.78;4.13;;;17.70;55.20;;;;;;10503601;28;20070;-55
2021/03/09 05:11:51;;;;;;;6.22;3.83;;;17.70;55.20;;;;;;10469217;28;20052;-55
2021/03/09 05:16:52;;;;;;;5.75;4.03;;;17.70;55.20;;;;;;10502400;28;20120;-55
2021/03/09 05:21:53;;;;;;;4.50;3.63;;;17.70;55.20;;;;;;10478296;28;20060;-55
2021/03/09 05:26:54;;;;;;;4.28;3.55;;;17.70;55.20;;;;;;10503744;28;20056;-55
2021/03/09 05:31:55;;;;;;;5.15;3.47;;;17.70;55.30;;;;;;10476147;28;20040;-55
2021/03/09 05:36:56;;;;;;;4.50;3.50;;;17.70;55.10;;;;;;10493256;28;20074;-56
2021/03/09 05:41:57;;;;;;;5.00;3.55;;;17.70;55.10;;;;;;10478120;28;20485;-55
2021/03/09 05:46:58;;;;;;;4.93;3.83;;;17.70;55.00;;;;;;10460675;28;20036;-55
2021/03/09 05:52:00;;;;;;;4.43;3.78;;;17.70;55.00;;;;;;10489850;28;20025;-55
2021/03/09 05:57:01;;;;;;;6.63;4.57;;;17.70;54.90;;;;;;10461137;28;20041;-56
2021/03/09 06:02:04;;;;;;;5.78;4.25;;;17.70;54.80;;;;;;10489208;28;20028;-55
2021/03/09 06:07:05;;;;;;;5.82;4.05;;;17.70;54.80;;;;;;10471109;28;20045;-55
2021/03/09 06:12:16;;;;;;;6.20;3.58;;;17.70;54.80;;;;;;10458881;28;20075;-54
2021/03/09 06:17:27;;;;;;;5.35;3.95;;;17.70;55.40;;;;;;10459637;28;20029;-55
2021/03/09 06:22:46;;;;;;;9.75;4.40;;;17.80;55.80;;;;;;10459056;28;20029;-56
2021/03/09 06:27:47;;;;;;;9.57;4.07;;;17.80;56.50;;;;;;10454834;28;20033;-56
2021/03/09 06:32:48;;;;;;;7.30;5.18;;;17.70;57.70;;;;;;10455355;28;20143;-56
2021/03/09 06:37:49;;;;;;;9.55;3.97;;;17.80;57.90;;;;;;10455883;28;20534;-55
2021/03/09 06:42:49;;;;;;;9.18;4.53;;;17.80;57.60;;;;;;10483773;28;20076;-56
2021/03/09 06:47:51;;;;;;;18.52;4.45;;;17.80;57.70;;;;;;10501040;28;20032;-57
2021/03/09 06:53:01;;;;;;;13.77;4.80;;;17.90;57.70;;;;;;10466185;28;20065;-55
2021/03/09 06:58:07;;;;;;;17.23;5.35;;;17.90;57.30;;;;;;10458661;28;20119;-55
2021/03/09 07:03:36;;;;;;;12.43;5.38;;;17.80;57.00;;;;;;10474592;28;20403;-54
2021/03/09 07:08:37;;;;;;;15.73;5.82;;;17.80;56.40;;;;;;10466214;28;20119;-54
2021/03/09 07:13:42;;;;;;;12.80;5.75;;;17.80;56.30;;;;;;10456180;28;20116;-54
2021/03/09 07:18:48;;;;;;;11.43;5.10;;;17.90;55.90;;;;;;10456016;28;20116;-54
2021/03/09 07:23:52;;;;;;;11.85;5.07;;;17.80;55.80;;;;;;10453910;28;20024;-53
2021/03/09 07:28:55;;;;;;;11.93;5.35;;;17.90;55.90;;;;;;10453223;28;20021;-54
2021/03/09 07:33:57;;;;;;;12.25;6.05;;;17.80;56.10;;;;;;10448249;28;20114;-54
2021/03/09 07:38:58;;;;;;;8.43;5.03;;;17.80;55.80;;;;;;10447125;28;20064;-53
2021/03/09 07:43:59;;;;;;;7.63;4.93;;;17.80;55.80;;;;;;10460507;28;20098;-54
2021/03/09 07:49:00;;;;;;;9.13;5.90;;;17.80;55.80;;;;;;10447354;28;20033;-55
2021/03/09 07:54:14;;;;;;;9.63;5.15;;;17.80;55.70;;;;;;10448177;28;20033;-55
2021/03/09 07:59:14;;;;;;;9.57;4.95;;;17.80;55.60;;;;;;10449094;28;20076;-55
2021/03/09 08:04:15;;;;;;;10.07;4.85;;;17.80;55.60;;;;;;10449391;28;20374;-55
2021/03/09 08:09:38;;;;;;;5.78;3.80;;;17.80;55.50;;;;;;10448561;28;20401;-55
2021/03/09 08:14:38;;;;;;;8.60;4.32;;;17.80;55.50;;;;;;10447016;28;20076;-54
2021/03/09 08:19:40;;;;;;;7.75;4.28;;;17.80;55.70;;;;;;10448778;28;20029;-54
2021/03/09 08:24:41;;;;;;;7.50;4.05;;;17.80;55.70;;;;;;10448948;28;20033;-54
2021/03/09 08:29:42;;;;;;;5.82;3.58;;;17.80;55.70;;;;;;10449252;28;20067;-54
2021/03/09 08:34:43;;;;;;;7.50;4.50;;;17.80;55.70;;;;;;10447644;28;20033;-55
2021/03/09 08:40:08;;;;;;;5.07;3.42;;;17.80;55.60;;;;;;10448446;28;20499;-54
2021/03/09 08:45:36;;;;;;;6.07;3.38;;;17.80;55.90;;;;;;10449515;28;20029;-55
2021/03/09 08:50:45;;;;;;;4.45;3.22;;;17.70;55.70;;;;;;10462431;28;20485;-55
2021/03/09 08:56:04;;;;;;;5.38;3.35;;;17.70;55.80;;;;;;10448068;28;20041;-55
2021/03/09 09:01:06;;;;;;;5.43;3.33;;;17.70;55.80;;;;;;10447957;28;20029;-54
2021/03/09 09:06:07;;;;;;;4.50;2.70;;;17.70;55.80;;;;;;10447915;28;20433;-55
2021/03/09 09:11:08;;;;;;;5.35;3.22;;;17.70;55.80;;;;;;10447660;28;20140;-55
2021/03/09 09:16:18;;;;;;;4.53;2.78;;;17.70;55.80;;;;;;10447333;28;20037;-55
2021/03/09 09:21:19;;;;;;;4.32;2.55;;;17.70;55.80;;;;;;10447672;28;20067;-55
2021/03/09 09:26:20;;;;;;;3.50;2.70;;;17.70;55.80;;;;;;10447712;28;20482;-54
2021/03/09 09:31:22;;;;;;;3.35;2.58;;;17.70;55.80;;;;;;10447266;28;20048;-55
2021/03/09 09:36:24;;;;;;;3.75;2.85;;;17.70;55.80;;;;;;10447420;28;20470;-55
2021/03/09 09:41:25;;;;;;;4.13;2.65;;;17.70;55.80;;;;;;10447219;28;20078;-55
2021/03/09 09:46:29;;;;;;;4.57;2.95;;;17.70;55.80;;;;;;10447424;28;20453;-53
2021/03/09 09:51:30;;;;;;;4.07;2.83;;;17.60;55.80;;;;;;10453869;28;20401;-55
2021/03/09 09:56:31;;;;;;;3.05;2.25;;;17.60;55.80;;;;;;10458924;28;20033;-55
2021/03/09 10:01:32;;;;;;;4.85;2.67;;;17.70;55.80;;;;;;10455085;28;20809;-55
2021/03/09 10:06:49;;;;;;;2.70;2.10;;;17.60;55.70;;;;;;10477763;28;20039;-54
2021/03/09 10:11:56;;;;;;;3.75;2.22;;;17.70;55.80;;;;;;10453756;28;20060;-55
2021/03/09 10:16:56;;;;;;;4.63;2.22;;;17.60;55.70;;;;;;10453778;28;20037;-54
2021/03/09 10:21:57;;;;;;;2.85;2.30;;;17.60;55.80;;;;;;10463025;28;20033;-54
2021/03/09 10:27:00;;;;;;;3.33;2.22;;;17.60;55.70;;;;;;10453414;28;20410;-55
2021/03/09 10:32:04;;;;;;;3.20;2.67;;;17.60;55.70;;;;;;10452753;28;20041;-54
2021/03/09 10:37:13;;;;;;;4.78;2.10;;;17.60;55.80;;;;;;10452686;28;20053;-54
2021/03/09 10:42:33;;;;;;;3.33;2.15;;;17.60;55.80;;;;;;10453160;28;20060;-54
2021/03/09 10:47:33;;;;;;;3.25;2.40;;;17.70;55.80;;;;;;10452332;28;20037;-55
2021/03/09 10:52:34;;;;;;;3.33;2.10;;;17.70;55.80;;;;;;10452270;28;20033;-55
2021/03/09 10:57:35;;;;;;;2.92;2.10;;;17.70;55.80;;;;;;10450207;28;20048;-54
2021/03/09 11:02:35;;;;;;;3.75;1.98;;;17.70;55.80;;;;;;10443152;28;20036;-55
2021/03/09 11:07:36;;;;;;;1.77;1.50;;;17.70;55.80;;;;;;10491932;28;20032;-55
2021/03/09 11:12:38;;;;;;;2.75;1.90;;;17.70;55.80;;;;;;10451000;28;20048;-54
2021/03/09 11:17:38;;;;;;;3.80;1.90;;;17.70;55.80;;;;;;10451070;28;20087;-55
2021/03/09 11:22:39;;;;;;;3.15;2.08;;;17.70;55.80;;;;;;10451115;28;20028;-54
2021/03/09 11:27:40;;;;;;;3.40;2.08;;;17.70;55.80;;;;;;10449359;28;20108;-55
2021/03/09 11:32:41;;;;;;;3.20;2.15;;;17.70;55.80;;;;;;10449438;28;20071;-54
2021/03/09 11:37:42;;;;;;;2.38;1.60;;;17.70;55.80;;;;;;10449491;28;20559;-55
2021/03/09 11:42:42;;;;;;;3.90;1.65;;;17.60;55.90;;;;;;10449759;28;20039;-55
2021/03/09 11:47:43;;;;;;;3.40;1.77;;;17.60;56.50;;;;;;10452538;28;20773;-55
2021/03/09 11:52:44;;;;;;;2.53;2.00;;;17.60;56.50;;;;;;10478652;28;20036;-55
2021/03/09 11:57:45;;;;;;;3.30;1.40;;;17.70;56.60;;;;;;10471228;28;20111;-56
2021/03/09 12:02:46;;;;;;;2.58;1.40;;;17.60;56.50;;;;;;10449089;28;20111;-56
2021/03/09 12:07:46;;;;;;;2.50;1.55;;;17.60;56.60;;;;;;10449112;28;20120;-54
2021/03/09 12:12:47;;;;;;;3.67;1.75;;;17.70;56.40;;;;;;10457640;28;20511;-55
2021/03/09 12:17:47;;;;;;;2.40;1.70;;;17.70;56.10;;;;;;10477753;28;20052;-54
2021/03/09 12:22:48;;;;;;;2.50;1.60;;;17.60;56.00;;;;;;10449013;28;20144;-54
2021/03/09 12:27:49;;;;;;;4.90;2.13;;;17.70;56.00;;;;;;10448642;28;20037;-55
2021/03/09 12:32:51;;;;;;;5.68;1.70;;;17.70;56.00;;;;;;10458275;28;20053;-55
2021/03/09 12:37:52;;;;;;;4.90;1.50;;;17.60;55.90;;;;;;10450016;28;20029;-55
2021/03/09 12:42:52;;;;;;;2.75;1.45;;;17.60;56.00;;;;;;10462756;28;20412;-54
2021/03/09 12:47:53;;;;;;;2.38;1.02;;;17.60;57.20;;;;;;10450927;28;20051;-54
2021/03/09 12:52:54;;;;;;;4.88;1.60;;;17.60;57.50;;;;;;10467834;28;20198;-54
2021/03/09 12:57:54;;;;;;;2.17;1.48;;;17.60;57.00;;;;;;10464309;28;20029;-54
2021/03/09 13:02:55;;;;;;;3.58;1.13;;;17.60;57.10;;;;;;10454265;28;20119;-54
2021/03/09 13:07:56;;;;;;;2.70;1.85;;;17.60;57.00;;;;;;10446462;28;20243;-54
2021/03/09 13:12:56;;;;;;;3.08;1.33;;;17.60;57.00;;;;;;10458789;28;20048;-54
2021/03/09 13:17:57;;;;;;;2.33;1.63;;;17.60;57.00;;;;;;10463006;28;20108;-55
2021/03/09 13:22:58;;;;;;;3.67;1.45;;;17.60;56.80;;;;;;10454717;28;20089;-54
2021/03/09 13:27:59;;;;;;;3.45;1.80;;;17.60;56.70;;;;;;10484023;28;20107;-54
2021/03/09 13:32:59;;;;;;;3.10;1.30;;;17.60;57.10;;;;;;10474130;28;20035;-54
2021/03/09 13:38:02;;;;;;;7.82;1.52;;;17.70;56.90;;;;;;10473778;28;20070;-54
2021/03/09 13:43:04;;;;;;;2.05;1.27;;;17.60;56.70;;;;;;10472312;28;20052;-52
2021/03/09 13:48:06;;;;;;;1.90;1.38;;;17.60;56.90;;;;;;10473830;28;20120;-55
2021/03/09 13:53:07;;;;;;;1.70;1.10;;;17.60;56.50;;;;;;10454775;28;20497;-54
2021/03/09 13:58:08;;;;;;;10.25;1.48;;;17.70;56.50;;;;;;10481487;28;20034;-55
2021/03/09 14:03:09;;;;;;;2.17;1.02;;;17.70;56.40;;;;;;10470996;28;20124;-55
2021/03/09 14:08:11;;;;;;;2.15;1.27;;;17.70;56.30;;;;;;10493079;28;20040;-54
2021/03/09 14:13:12;;;;;;;1.58;1.17;;;17.70;56.30;;;;;;10479789;28;20080;-55
2021/03/09 14:18:13;;;;;;;3.35;0.93;;;17.70;56.30;;;;;;10465360;28;20059;-55
2021/03/09 14:23:14;;;;;;;3.20;1.00;;;17.70;56.20;;;;;;10453252;28;20040;-55
2021/03/09 14:28:15;;;;;;;2.53;1.30;;;17.70;56.20;;;;;;10453855;28;20064;-55
2021/03/09 14:33:16;;;;;;;1.98;1.10;;;17.70;56.10;;;;;;10451985;28;20033;-55
2021/03/09 14:38:17;;;;;;;1.67;0.85;;;17.70;56.10;;;;;;10466054;28;20108;-55
2021/03/09 14:43:17;;;;;;;1.45;0.88;;;17.60;56.00;;;;;;10448946;28;20040;-54
2021/03/09 14:48:18;;;;;;;1.40;0.77;;;17.70;56.00;;;;;;10452261;28;20107;-55
2021/03/09 14:53:20;;;;;;;3.17;1.48;;;17.70;56.00;;;;;;10467519;28;20029;-54
2021/03/09 14:58:21;;;;;;;3.55;1.20;;;17.70;55.80;;;;;;10488910;28;20039;-54
2021/03/09 15:03:21;;;;;;;3.67;1.20;;;17.70;55.90;;;;;;10456942;28;20143;-54
2021/03/09 15:08:22;;;;;;;2.55;1.08;;;17.70;56.00;;;;;;10451757;28;20029;-55
2021/03/09 15:13:24;;;;;;;2.03;0.90;;;17.70;56.10;;;;;;10451154;28;20117;-54
2021/03/09 15:18:25;;;;;;;1.10;0.75;;;17.70;55.90;;;;;;10451409;28;20033;-55
2021/03/09 15:23:26;;;;;;;3.05;1.55;;;17.70;56.00;;;;;;10481348;28;20373;-55
2021/03/09 15:28:26;;;;;;;1.30;0.60;;;17.70;55.90;;;;;;10489737;28;20087;-55
2021/03/09 15:33:27;;;;;;;4.47;1.08;;;17.70;55.90;;;;;;10484182;28;20128;-55
2021/03/09 15:38:28;;;;;;;2.30;1.05;;;17.70;55.80;;;;;;10461392;28;20033;-53
2021/03/09 15:43:29;;;;;;;2.53;2.25;;;17.70;55.80;;;;;;10450226;28;20072;-55
2021/03/09 15:48:30;;;;;;;3.55;1.20;;;17.70;55.80;;;;;;10477429;28;20124;-55
2021/03/09 15:53:31;;;;;;;2.17;0.90;;;17.70;56.00;;;;;;10486270;28;20051;-55
2021/03/09 15:58:32;;;;;;;5.10;0.80;;;17.70;56.00;;;;;;10479531;28;20024;-55
2021/03/09 16:03:32;;;;;;;7.18;1.08;;;17.70;56.00;;;;;;10485914;28;20040;-55
2021/03/09 16:08:33;;;;;;;5.97;1.27;;;17.70;56.00;;;;;;10457614;28;20581;-55
2021/03/09 16:13:34;;;;;;;2.92;0.75;;;17.70;56.00;;;;;;10449425;28;20143;-56
2021/03/09 16:18:35;;;;;;;4.32;1.13;;;17.70;55.90;;;;;;10458345;28;20052;-56
2021/03/09 16:23:35;;;;;;;2.78;0.95;;;17.70;55.90;;;;;;10470148;28;20055;-54
2021/03/09 16:28:36;;;;;;;3.38;1.27;;;17.70;55.80;;;;;;10467617;28;20492;-54
2021/03/09 16:33:37;;;;;;;2.70;1.00;;;17.70;55.80;;;;;;10450892;28;20032;-55
2021/03/09 16:38:38;;;;;;;2.10;1.10;;;17.70;55.80;;;;;;10451779;28;20517;-54
2021/03/09 16:43:38;;;;;;;3.45;1.30;;;17.70;55.80;;;;;;10482731;28;20041;-54
2021/03/09 16:48:41;;;;;;;3.33;1.00;;;17.70;55.80;;;;;;10449582;28;20033;-54
2021/03/09 16:53:42;;;;;;;8.48;1.83;;;17.70;55.70;;;;;;10480966;28;20033;-54
2021/03/09 16:58:43;;;;;;;5.65;1.20;;;17.70;55.70;;;;;;10453183;28;20037;-55
2021/03/09 17:03:43;;;;;;;16.95;6.60;;;17.70;55.80;;;;;;10488828;28;20047;-55
2021/03/09 17:08:44;;;;;;;10.85;4.57;;;17.70;57.60;;;;;;10463171;28;20408;-55
2021/03/09 17:13:45;;;;;;;16.48;5.00;;;17.80;58.60;;;;;;10477037;28;20120;-55
2021/03/09 17:18:45;;;;;;;11.43;4.32;;;17.80;60.60;;;;;;10490737;28;20035;-55
2021/03/09 17:23:47;;;;;;;12.45;4.03;;;17.80;61.10;;;;;;10464580;28;20500;-55
2021/03/09 17:28:47;;;;;;;12.90;4.13;;;17.90;60.90;;;;;;10462263;28;20119;-56
2021/03/09 17:33:48;;;;;;;11.50;3.97;;;17.80;60.60;;;;;;10488086;28;20106;-52
2021/03/09 17:38:49;;;;;;;20.48;5.00;;;17.80;60.20;;;;;;10482341;28;20044;-54
2021/03/09 17:43:49;;;;;;;19.23;4.07;;;17.80;60.80;;;;;;10488320;28;20109;-54
2021/03/09 17:48:50;;;;;;;18.55;4.32;;;17.80;60.50;;;;;;10464219;28;20682;-55
2021/03/09 17:53:51;;;;;;;10.95;3.15;;;17.80;59.90;;;;;;10481562;28;20697;-55
2021/03/09 17:58:51;;;;;;;10.57;3.33;;;17.70;59.70;;;;;;10475660;28;20063;-55
2021/03/09 18:03:52;;;;;;;13.77;4.38;;;17.70;59.70;;;;;;10466576;28;20029;-55
2021/03/09 18:08:53;;;;;;;23.23;4.20;;;17.70;59.70;;;;;;10485559;28;20029;-54
2021/03/09 18:13:54;;;;;;;14.75;3.28;;;17.60;59.80;;;;;;10479913;28;20037;-55
2021/03/09 18:18:58;;;;;;;15.18;3.53;;;17.60;59.70;;;;;;10488235;28;20029;-54
2021/03/09 18:24:04;;;;;;;12.95;2.95;;;17.60;60.00;;;;;;10482215;28;20115;-54
2021/03/09 18:29:05;;;;;;;11.20;3.30;;;17.70;60.30;;;;;;10470986;28;20037;-56
2021/03/09 18:34:06;;;;;;;9.30;2.88;;;17.60;60.30;;;;;;10494302;28;20101;-56
2021/03/09 18:39:07;;;;;;;14.63;3.08;;;17.60;60.10;;;;;;10463800;28;20086;-54
2021/03/09 18:44:07;;;;;;;10.32;3.17;;;17.60;59.90;;;;;;10472971;28;20034;-56
2021/03/09 18:49:08;;;;;;;10.70;3.05;;;17.70;60.30;;;;;;10471377;28;20101;-56
2021/03/09 18:54:09;;;;;;;7.25;3.13;;;17.70;60.60;;;;;;10461876;28;20041;-55
2021/03/09 18:59:09;;;;;;;11.85;3.58;;;17.70;60.70;;;;;;10459135;28;20029;-54
2021/03/09 19:04:10;;;;;;;8.88;2.42;;;17.70;60.90;;;;;;10458460;28;20064;-54
2021/03/09 19:09:11;;;;;;;10.13;3.13;;;17.70;61.00;;;;;;10470617;28;20059;-54
2021/03/09 19:14:12;;;;;;;7.05;2.58;;;17.70;61.10;;;;;;10457939;28;20049;-54
2021/03/09 19:19:13;;;;;;;8.88;3.45;;;17.70;61.30;;;;;;10457386;28;20045;-53
2021/03/09 19:24:14;;;;;;;5.90;2.80;;;17.70;61.50;;;;;;10457635;28;20032;-55
2021/03/09 19:29:14;;;;;;;6.85;2.05;;;17.70;61.40;;;;;;10458396;28;20483;-54
2021/03/09 19:34:15;;;;;;;5.63;3.10;;;17.70;61.40;;;;;;10485905;28;20519;-54
2021/03/09 19:39:17;;;;;;;6.38;2.33;;;17.70;61.50;;;;;;10474437;28;20100;-53
2021/03/09 19:44:17;;;;;;;7.10;2.80;;;17.70;61.30;;;;;;10483583;28;20111;-56
2021/03/09 19:49:19;;;;;;;6.60;3.05;;;17.70;61.30;;;;;;10457790;28;20124;-55
2021/03/09 19:54:19;;;;;;;12.48;2.83;;;17.70;61.20;;;;;;10475851;28;20024;-55
2021/03/09 19:59:25;;;;;;;5.60;2.47;;;17.70;61.10;;;;;;10494209;28;20047;-55
2021/03/09 20:04:26;;;;;;;7.47;2.08;;;17.70;60.60;;;;;;10464216;28;20035;-54
2021/03/09 20:09:27;;;;;;;6.82;3.03;;;17.70;60.40;;;;;;10484522;28;20025;-55
2021/03/09 20:14:28;;;;;;;6.20;2.00;;;17.70;60.40;;;;;;10455789;28;20044;-54
2021/03/09 20:19:29;;;;;;;6.65;2.75;;;17.60;60.30;;;;;;10457382;28;20487;-55
2021/03/09 20:24:30;;;;;;;3.70;1.90;;;17.60;60.30;;;;;;10475693;28;20142;-55
2021/03/09 20:29:30;;;;;;;5.90;2.20;;;17.60;60.30;;;;;;10455000;28;20037;-55
2021/03/09 20:34:31;;;;;;;3.90;1.70;;;17.60;60.10;;;;;;10485995;28;20032;-55
2021/03/09 20:39:33;;;;;;;3.03;1.55;;;17.60;59.90;;;;;;10475291;28;20035;-55
2021/03/09 20:44:34;;;;;;;6.95;2.33;;;17.60;59.70;;;;;;10480401;28;20028;-55
2021/03/09 20:49:35;;;;;;;3.53;1.80;;;17.70;59.60;;;;;;10454468;28;20033;-55
2021/03/09 20:54:35;;;;;;;3.85;1.45;;;17.60;59.40;;;;;;10487980;28;20043;-55
2021/03/09 20:59:36;;;;;;;4.95;2.05;;;17.70;59.30;;;;;;10491949;28;20035;-55
2021/03/09 21:04:38;;;;;;;3.45;1.50;;;17.70;59.20;;;;;;10453592;28;20029;-56
2021/03/09 21:09:41;;;;;;;2.92;1.50;;;17.70;59.10;;;;;;10455236;28;20025;-55
2021/03/09 21:14:42;;;;;;;5.07;1.73;;;17.70;59.00;;;;;;10477675;28;20095;-54
2021/03/09 21:19:43;;;;;;;4.53;1.73;;;17.70;58.80;;;;;;10457690;28;20021;-55
2021/03/09 21:24:44;;;;;;;3.22;1.85;;;17.70;58.70;;;;;;10494733;28;20040;-55
2021/03/09 21:29:45;;;;;;;3.63;1.58;;;17.70;58.70;;;;;;10490750;28;20029;-54
2021/03/09 21:34:45;;;;;;;5.35;1.92;;;17.70;58.60;;;;;;10453574;28;20123;-54
2021/03/09 21:39:46;;;;;;;3.25;1.52;;;17.70;58.60;;;;;;10453738;28;20108;-55
2021/03/09 21:44:47;;;;;;;2.78;1.50;;;17.70;58.60;;;;;;10459534;28;20029;-55
2021/03/09 21:49:48;;;;;;;5.93;1.58;;;17.70;58.50;;;;;;10485614;28;20546;-55
2021/03/09 21:54:51;;;;;;;2.58;1.25;;;17.70;58.40;;;;;;10502763;28;20045;-55
2021/03/09 21:59:51;;;;;;;3.75;1.58;;;17.70;58.30;;;;;;10467606;28;20021;-55
2021/03/09 22:04:52;;;;;;;2.47;1.92;;;17.70;58.20;;;;;;10461051;28;20025;-55
2021/03/09 22:09:53;;;;;;;2.25;1.23;;;17.70;58.20;;;;;;10490051;28;20103;-55
2021/03/09 22:14:53;;;;;;;3.67;1.80;;;17.70;58.10;;;;;;10501706;28;20583;-55
2021/03/09 22:19:54;;;;;;;6.93;1.67;;;17.80;58.10;;;;;;10466567;28;20057;-55
2021/03/09 22:24:55;;;;;;;2.63;1.63;;;17.80;58.00;;;;;;10459909;28;20060;-55
2021/03/09 22:29:55;;;;;;;2.47;1.58;;;17.80;58.00;;;;;;10460268;28;20108;-55
2021/03/09 22:34:56;;;;;;;3.17;1.20;;;17.80;57.90;;;;;;10468044;28;20111;-55
2021/03/09 22:39:58;;;;;;;4.10;1.25;;;17.80;57.80;;;;;;10477931;28;20419;-55
2021/03/09 22:44:58;;;;;;;2.50;1.67;;;17.80;57.70;;;;;;10460693;28;20151;-55
2021/03/09 22:49:59;;;;;;;2.30;1.25;;;17.80;57.70;;;;;;10483558;28;20174;-55
2021/03/09 22:55:00;;;;;;;2.95;1.33;;;17.80;57.70;;;;;;10478089;28;20040;-54
2021/03/09 23:00:00;;;;;;;2.47;1.17;;;17.80;57.70;;;;;;10500254;28;20048;-55
2021/03/09 23:05:01;;;;;;;2.58;1.10;;;17.80;57.70;;;;;;10484185;28;20033;-55
2021/03/09 23:10:03;;;;;;;2.30;0.85;;;17.80;57.70;;;;;;10499863;28;20087;-54
2021/03/09 23:15:09;;;;;;;2.85;1.02;;;17.80;57.60;;;;;;10464833;28;20153;-55
2021/03/09 23:20:18;;;;;;;1.35;0.85;;;17.80;57.50;;;;;;10491313;28;20039;-54
2021/03/09 23:25:21;;;;;;;2.85;1.00;;;17.80;57.50;;;;;;10478616;28;20031;-55
2021/03/09 23:30:25;;;;;;;5.22;1.30;;;17.80;57.40;;;;;;10457241;28;20044;-54
2021/03/09 23:35:27;;;;;;;1.88;0.95;;;17.80;57.30;;;;;;10467501;28;20047;-54
2021/03/09 23:40:35;;;;;;;2.33;1.08;;;17.80;57.30;;;;;;10467640;28;20033;-55
2021/03/09 23:45:36;;;;;;;2.47;1.45;;;17.80;57.20;;;;;;10457410;28;20043;-55
2021/03/09 23:50:43;;;;;;;2.22;1.05;;;17.80;57.20;;;;;;10473132;28;20036;-55
2021/03/09 23:55:44;;;;;;;2.38;1.00;;;17.80;57.20;;;;;;10474118;28;20114;-55
